Hauptseite
METAR-TAF:

METAR-TAF

Flughäfen :

Flughafen Lahr

Lahr, Deutschland

Breite: 48-22-09N, Länge: 007-49-40E, Höhe: 156 m

Beobachtung

Neuester Wetterbericht von vor 23 Minuten, um 06:20 UTC
Wind 2 kt aus Südwest
Temperatur 12°C
Luftfeuchtigkeit 88%
Luftdruck 1026 hPa
Sichtweite 10 km oder mehr
Durchbrochene Bewölkung in der Höhe von 4600 ft

METAR: EDTL 070620Z 22002KT 9999 BKN046 12/10 Q1026

Zeit: 08:43 (06:43 UTC)

Prognose

Neuester Wetterbericht von vor 1 Stunde und 43 Minuten, um 05:00 UTC
Gültige Prognose vom 07 um 06 UTC bis 07 um 15 UTC
Wind 3 kt aus unterschiedlichen Richtungen
Sichtweite 10 km oder mehr
Aufgelockert bewölkt in der Höhe von 4500 ft

TAF: EDTL 070500Z 0706/0715 VRB03KT 9999 SCT045

Wetterbeobachtungen und Prognosen von mehr als 4000 Flughäfen (METAR und TAF Bericht).

Die verfügbaren Stationen werden durch gelbe und rote Markierungen auf der Karte dargestellt.

Führen Sie die Maus auf sie, um den Namen der Station zu sehen.

Darauf klicken, um die Beobachtung von Wetterbeobachtungen und Prognosen zu sehen.

Um die Karte zu ändern : klicken Sie auf den grünen Tasten mit einem schwarzen Kreuz Zum Vergrößern, auf den grünen Button mit einem Gedankenstrich zu verkleinern, oder auf die grünen Pfeile für benachbarte Karten.


METAR-TAF: